createdAt,value
2023-05-10T00:03:27.008Z,11.90
2023-05-10T00:08:29.071Z,12.00
2023-05-10T00:13:31.384Z,12.00
2023-05-10T00:18:33.533Z,12.00
2023-05-10T00:23:35.623Z,12.00
2023-05-10T00:28:37.721Z,12.10
2023-05-10T00:33:39.842Z,12.00
2023-05-10T00:38:42.039Z,12.10
2023-05-10T00:43:44.201Z,12.00
2023-05-10T00:48:46.660Z,12.00
2023-05-10T00:53:50.439Z,12.00
2023-05-10T00:58:53.023Z,12.10
2023-05-10T01:03:56.304Z,12.10
2023-05-10T01:08:58.496Z,12.00
2023-05-10T01:14:00.820Z,11.90
2023-05-10T01:19:03.217Z,11.90
2023-05-10T01:24:41.912Z,11.90
2023-05-10T01:30:04.997Z,11.90
2023-05-10T01:35:35.690Z,12.00
2023-05-10T01:40:46.065Z,12.00
2023-05-10T01:46:05.637Z,12.00
2023-05-10T01:51:09.445Z,12.00
2023-05-10T01:56:14.098Z,12.00
2023-05-10T02:01:17.452Z,12.00
2023-05-10T02:06:22.583Z,11.90
2023-05-10T02:11:25.944Z,11.90
2023-05-10T02:16:29.103Z,11.80
2023-05-10T02:21:32.330Z,11.80
2023-05-10T02:26:37.031Z,11.80
2023-05-10T02:31:40.027Z,11.80
2023-05-10T02:36:43.176Z,11.80
2023-05-10T02:41:48.230Z,11.80
2023-05-10T02:46:50.629Z,11.80
2023-05-10T02:51:57.882Z,11.80
2023-05-10T02:57:04.852Z,11.80
2023-05-10T03:02:07.640Z,11.80
2023-05-10T03:07:10.316Z,11.70
2023-05-10T03:12:31.304Z,11.80
2023-05-10T03:17:58.217Z,11.80
2023-05-10T03:23:14.677Z,11.80
2023-05-10T03:28:18.789Z,11.80
2023-05-10T03:33:21.734Z,11.80
2023-05-10T03:38:24.031Z,11.90
2023-05-10T03:43:26.168Z,11.90
2023-05-10T03:48:28.343Z,11.80
2023-05-10T03:53:30.501Z,11.80
2023-05-10T03:58:32.721Z,11.90
2023-05-10T04:03:37.408Z,11.80
2023-05-10T04:08:41.092Z,11.80
2023-05-10T04:13:44.126Z,11.80
2023-05-10T04:18:46.503Z,11.90
2023-05-10T04:23:48.597Z,11.90
2023-05-10T04:28:50.657Z,12.00
2023-05-10T04:33:53.293Z,11.90
2023-05-10T04:38:55.434Z,11.90
2023-05-10T04:43:57.760Z,11.90
2023-05-10T04:48:59.817Z,11.90
2023-05-10T04:54:06.579Z,11.90
2023-05-10T04:59:08.949Z,11.90
2023-05-10T05:04:11.043Z,12.00
2023-05-10T05:09:13.257Z,11.90
2023-05-10T05:14:15.359Z,12.00
2023-05-10T05:19:17.606Z,12.00
2023-05-10T05:24:19.762Z,12.00
2023-05-10T05:29:21.991Z,12.00
2023-05-10T05:34:25.246Z,12.00
2023-05-10T05:39:27.316Z,12.10
2023-05-10T05:44:29.857Z,12.10
2023-05-10T05:49:32.116Z,12.20
2023-05-10T05:54:34.239Z,12.30
2023-05-10T05:59:36.424Z,12.30
2023-05-10T06:04:39.291Z,12.30
2023-05-10T06:09:41.502Z,12.30
2023-05-10T06:14:43.581Z,12.40
2023-05-10T06:19:45.622Z,12.40
2023-05-10T06:24:48.005Z,12.40
2023-05-10T06:29:52.229Z,12.50
2023-05-10T06:34:58.461Z,12.60
2023-05-10T06:40:00.523Z,12.60
2023-05-10T06:45:02.709Z,12.60
2023-05-10T06:50:05.039Z,12.60
2023-05-10T06:55:07.662Z,12.60
2023-05-10T07:00:10.835Z,12.70
2023-05-10T07:05:13.277Z,12.80
2023-05-10T07:10:15.543Z,12.80
2023-05-10T07:15:18.269Z,12.70
2023-05-10T07:20:20.755Z,12.50
2023-05-10T07:25:22.829Z,12.40
2023-05-10T07:30:25.190Z,12.40
2023-05-10T07:35:27.488Z,12.50
2023-05-10T07:40:29.815Z,12.50
2023-05-10T07:45:31.914Z,12.50
2023-05-10T07:50:34.069Z,12.60
2023-05-10T07:55:36.127Z,12.70
2023-05-10T08:00:40.562Z,12.60
2023-05-10T08:05:42.736Z,12.70
2023-05-10T08:10:45.077Z,12.90
2023-05-10T08:15:47.356Z,13.20
2023-05-10T08:20:49.583Z,13.30
2023-05-10T08:25:51.716Z,13.30
2023-05-10T08:30:53.924Z,13.20
2023-05-10T08:35:56.075Z,13.30
2023-05-10T08:40:59.449Z,13.30
2023-05-10T08:46:05.442Z,13.40
2023-05-10T08:51:09.224Z,13.60
2023-05-10T08:56:11.632Z,13.60
2023-05-10T09:01:16.872Z,13.50
2023-05-10T09:06:19.203Z,13.60
2023-05-10T09:11:21.678Z,13.70
2023-05-10T09:16:24.728Z,13.60
2023-05-10T09:21:27.490Z,13.70
2023-05-10T09:26:29.555Z,13.70
2023-05-10T09:31:52.271Z,13.80
2023-05-10T09:36:57.212Z,14.20
2023-05-10T09:42:08.111Z,14.10
2023-05-10T09:47:10.315Z,14.20
2023-05-10T09:52:12.400Z,14.50
2023-05-10T09:57:22.995Z,14.60
2023-05-10T10:02:30.436Z,14.60
2023-05-10T10:07:33.082Z,14.80
2023-05-10T10:12:35.239Z,14.80
2023-05-10T10:17:41.073Z,14.60
2023-05-10T10:22:44.817Z,14.50
2023-05-10T10:27:52.826Z,14.90
2023-05-10T10:33:24.230Z,14.90
2023-05-10T10:38:52.915Z,14.90
2023-05-10T10:44:26.284Z,14.80
2023-05-10T10:49:28.782Z,14.90
2023-05-10T10:54:30.931Z,15.30
2023-05-10T10:59:32.994Z,15.30
2023-05-10T11:04:47.453Z,15.00
2023-05-10T11:09:49.872Z,14.80
2023-05-10T11:14:52.478Z,15.00
2023-05-10T11:20:25.994Z,15.10
2023-05-10T11:25:29.158Z,15.30
2023-05-10T11:30:32.369Z,15.40
2023-05-10T11:35:43.421Z,15.60
2023-05-10T11:40:45.908Z,15.30
2023-05-10T11:45:48.040Z,15.60
2023-05-10T11:50:50.534Z,15.90
2023-05-10T11:55:52.656Z,16.00
2023-05-10T12:00:54.832Z,16.70
2023-05-10T12:05:58.160Z,16.70
2023-05-10T12:11:13.198Z,16.10
2023-05-10T12:16:16.873Z,15.70
2023-05-10T12:21:20.498Z,16.20
2023-05-10T12:26:24.314Z,15.70
2023-05-10T12:31:26.457Z,15.60
2023-05-10T12:36:28.527Z,16.20
2023-05-10T12:41:30.597Z,16.70
2023-05-10T12:46:33.794Z,16.50
2023-05-10T12:51:36.019Z,16.10
2023-05-10T12:56:38.129Z,16.30
2023-05-10T13:01:40.214Z,16.30
2023-05-10T13:06:42.283Z,16.20
2023-05-10T13:11:44.417Z,16.50
2023-05-10T13:16:46.471Z,16.60
2023-05-10T13:21:48.555Z,16.50
2023-05-10T13:26:50.929Z,16.40
2023-05-10T13:31:53.207Z,16.20
2023-05-10T13:36:56.772Z,16.20
2023-05-10T13:41:58.778Z,16.30
2023-05-10T13:47:01.082Z,16.10
2023-05-10T13:52:07.962Z,16.70
2023-05-10T13:57:10.091Z,16.70
2023-05-10T14:02:13.934Z,16.20
2023-05-10T14:07:16.101Z,16.30
2023-05-10T14:12:18.115Z,16.40
2023-05-10T14:17:20.440Z,16.00
2023-05-10T14:22:22.996Z,15.90
2023-05-10T14:27:25.573Z,16.10
2023-05-10T14:32:28.523Z,15.90
2023-05-10T14:37:30.612Z,15.90
2023-05-10T14:42:32.652Z,16.20
2023-05-10T14:47:34.897Z,16.30
2023-05-10T14:52:37.471Z,16.00
2023-05-10T14:57:39.582Z,15.70
2023-05-10T15:02:41.744Z,15.60
2023-05-10T15:07:44.891Z,16.50
2023-05-10T15:12:47.230Z,16.30
2023-05-10T15:17:49.682Z,16.20
2023-05-10T15:22:51.832Z,16.00
2023-05-10T15:27:54.007Z,15.60
2023-05-10T15:32:56.543Z,15.20
2023-05-10T15:37:58.753Z,15.10
2023-05-10T15:43:00.800Z,15.20
2023-05-10T15:48:03.020Z,15.40
2023-05-10T15:53:05.292Z,15.50
2023-05-10T15:58:07.426Z,15.20
2023-05-10T16:03:09.568Z,14.90
2023-05-10T16:08:12.024Z,14.70
2023-05-10T16:13:15.249Z,14.70
2023-05-10T16:18:18.395Z,14.80
2023-05-10T16:23:21.009Z,14.70
2023-05-10T16:28:25.099Z,14.60
2023-05-10T16:33:27.981Z,14.50
2023-05-10T16:38:30.598Z,14.50
2023-05-10T16:43:33.025Z,14.40
2023-05-10T16:48:35.119Z,14.40
2023-05-10T16:53:37.852Z,14.40
2023-05-10T16:58:39.906Z,14.40
2023-05-10T17:03:42.042Z,14.50
2023-05-10T17:08:45.082Z,14.80
2023-05-10T17:13:47.315Z,15.30
2023-05-10T17:18:49.525Z,15.30
2023-05-10T17:23:51.728Z,15.30
2023-05-10T17:28:54.835Z,15.40
2023-05-10T17:33:57.221Z,15.60
2023-05-10T17:38:59.393Z,15.10
2023-05-10T17:44:01.528Z,14.70
2023-05-10T17:49:03.632Z,14.50
2023-05-10T17:54:05.716Z,14.30
2023-05-10T17:59:07.837Z,14.10
2023-05-10T18:04:10.044Z,13.90
2023-05-10T18:09:12.372Z,13.90
2023-05-10T18:14:16.040Z,13.80
2023-05-10T18:19:22.450Z,13.70
2023-05-10T18:24:37.492Z,13.60
2023-05-10T18:29:41.523Z,13.60
2023-05-10T18:34:43.554Z,13.50
2023-05-10T18:39:45.659Z,13.50
2023-05-10T18:44:47.750Z,13.40
2023-05-10T18:49:49.891Z,13.30
2023-05-10T18:54:52.741Z,13.30
2023-05-10T18:59:55.082Z,13.20
2023-05-10T19:04:59.674Z,13.10
2023-05-10T19:10:02.057Z,13.10
2023-05-10T19:15:04.552Z,13.00
2023-05-10T19:20:08.026Z,12.90
2023-05-10T19:25:13.101Z,12.90
2023-05-10T19:30:16.516Z,12.80
2023-05-10T19:35:20.082Z,12.80
2023-05-10T19:40:22.795Z,12.70
2023-05-10T19:45:25.149Z,12.70
2023-05-10T19:50:27.366Z,12.60
2023-05-10T19:55:32.010Z,12.50
2023-05-10T20:00:34.322Z,12.40
2023-05-10T20:05:36.963Z,12.50
2023-05-10T20:10:39.688Z,12.40
2023-05-10T20:15:41.988Z,12.40
2023-05-10T20:20:44.112Z,12.50
2023-05-10T20:25:46.259Z,12.40
2023-05-10T20:30:48.861Z,12.40
2023-05-10T20:35:52.405Z,12.40
2023-05-10T20:40:55.610Z,12.40
2023-05-10T20:46:05.053Z,12.40
2023-05-10T20:51:07.314Z,12.40
2023-05-10T20:56:09.350Z,12.30
2023-05-10T21:01:11.518Z,12.20
2023-05-10T21:06:13.596Z,12.20
2023-05-10T21:11:15.786Z,12.10
2023-05-10T21:16:17.953Z,12.10
2023-05-10T21:21:20.119Z,12.10
2023-05-10T21:26:22.201Z,12.10
2023-05-10T21:31:24.273Z,12.10
2023-05-10T21:36:26.932Z,12.10
2023-05-10T21:41:29.160Z,12.10
2023-05-10T21:46:32.820Z,12.00
2023-05-10T21:51:34.897Z,12.00
2023-05-10T21:56:37.274Z,12.00
2023-05-10T22:01:40.207Z,12.00
2023-05-10T22:06:42.389Z,12.00
2023-05-10T22:11:44.597Z,12.00
2023-05-10T22:16:46.720Z,11.90
2023-05-10T22:21:48.917Z,11.90
2023-05-10T22:26:53.497Z,12.00
2023-05-10T22:31:55.645Z,11.90
2023-05-10T22:36:57.737Z,11.90
2023-05-10T22:41:59.804Z,11.80
2023-05-10T22:47:02.101Z,11.90
2023-05-10T22:52:04.287Z,11.80
2023-05-10T22:57:06.377Z,11.80
2023-05-10T23:02:09.676Z,11.80
2023-05-10T23:07:11.825Z,11.80
2023-05-10T23:12:13.871Z,11.70
2023-05-10T23:17:16.409Z,11.70
2023-05-10T23:22:18.515Z,11.70
2023-05-10T23:27:20.669Z,11.70
2023-05-10T23:32:23.465Z,11.70
2023-05-10T23:37:25.620Z,11.60
2023-05-10T23:42:27.701Z,11.70
2023-05-10T23:47:29.777Z,11.70
2023-05-10T23:52:31.957Z,11.60
2023-05-10T23:57:34.075Z,11.60
